createdAt,value
2023-01-12T00:01:58.219Z,7.80
2023-01-12T00:04:25.675Z,7.80
2023-01-12T00:06:52.679Z,7.80
2023-01-12T00:09:19.856Z,7.90
2023-01-12T00:11:46.729Z,8.00
2023-01-12T00:14:13.887Z,7.80
2023-01-12T00:16:41.383Z,7.80
2023-01-12T00:19:20.434Z,7.70
2023-01-12T00:22:07.304Z,7.80
2023-01-12T00:24:35.597Z,7.70
2023-01-12T00:27:07.788Z,7.70
2023-01-12T00:29:35.934Z,7.70
2023-01-12T00:32:03.952Z,7.90
2023-01-12T00:34:31.300Z,7.70
2023-01-12T00:37:00.531Z,7.70
2023-01-12T00:42:32.183Z,7.80
2023-01-12T00:45:19.581Z,8.00
2023-01-12T00:47:46.515Z,7.80
2023-01-12T00:50:14.053Z,7.30
2023-01-12T00:52:40.973Z,6.70
2023-01-12T00:55:08.344Z,6.40
2023-01-12T00:57:35.245Z,6.30
2023-01-12T01:00:02.210Z,6.30
2023-01-12T01:02:29.816Z,6.30
2023-01-12T01:04:56.882Z,6.20
2023-01-12T01:07:24.136Z,6.40
2023-01-12T01:09:51.152Z,6.20
2023-01-12T01:12:18.490Z,6.30
2023-01-12T01:14:46.719Z,6.30
2023-01-12T01:17:13.660Z,6.30
2023-01-12T01:19:40.535Z,6.30
2023-01-12T01:22:07.466Z,6.40
2023-01-12T01:24:34.324Z,6.40
2023-01-12T01:27:01.242Z,6.40
2023-01-12T01:29:28.078Z,6.40
2023-01-12T01:31:55.719Z,6.60
2023-01-12T01:34:23.994Z,6.50
2023-01-12T01:36:50.937Z,6.60
2023-01-12T01:39:17.929Z,6.60
2023-01-12T01:41:44.924Z,6.60
2023-01-12T01:44:29.830Z,6.70
2023-01-12T01:47:14.300Z,6.80
2023-01-12T01:49:47.988Z,6.80
2023-01-12T01:52:21.319Z,6.90
2023-01-12T01:54:53.467Z,6.80
2023-01-12T01:57:22.975Z,6.80
2023-01-12T01:59:55.083Z,6.90
2023-01-12T02:02:24.374Z,7.00
2023-01-12T02:04:52.376Z,6.90
2023-01-12T02:07:19.460Z,7.00
2023-01-12T02:09:46.340Z,7.00
2023-01-12T02:12:32.409Z,7.00
2023-01-12T02:15:17.893Z,7.10
2023-01-12T02:18:10.705Z,7.20
2023-01-12T02:20:42.902Z,7.20
2023-01-12T02:23:34.290Z,7.20
2023-01-12T02:26:01.130Z,7.30
2023-01-12T02:28:56.730Z,7.40
2023-01-12T02:31:41.105Z,7.40
2023-01-12T02:34:17.189Z,7.40
2023-01-12T02:37:07.934Z,7.40
2023-01-12T02:39:59.818Z,7.40
2023-01-12T02:42:58.954Z,7.40
2023-01-12T02:45:45.929Z,7.40
2023-01-12T02:48:45.500Z,7.40
2023-01-12T02:51:19.000Z,7.30
2023-01-12T02:54:04.489Z,7.30
2023-01-12T02:56:46.298Z,7.20
2023-01-12T02:59:27.004Z,7.20
2023-01-12T03:01:58.963Z,7.20
2023-01-12T03:04:28.184Z,7.20
2023-01-12T03:06:57.264Z,7.30
2023-01-12T03:09:31.348Z,7.30
2023-01-12T03:12:06.873Z,7.30
2023-01-12T03:14:37.337Z,7.40
2023-01-12T03:17:09.446Z,7.30
2023-01-12T03:19:36.532Z,7.30
2023-01-12T03:22:09.029Z,7.40
2023-01-12T03:24:39.915Z,7.30
2023-01-12T03:27:14.500Z,7.40
2023-01-12T03:29:55.103Z,7.30
2023-01-12T03:32:22.777Z,7.30
2023-01-12T03:34:50.373Z,7.20
2023-01-12T03:38:08.748Z,7.20
2023-01-12T03:40:39.400Z,7.20
2023-01-12T03:43:34.540Z,7.20
2023-01-12T03:46:35.186Z,7.30
2023-01-12T03:49:07.613Z,7.30
2023-01-12T03:51:37.521Z,7.20
2023-01-12T03:54:08.522Z,7.30
2023-01-12T03:56:36.819Z,7.30
2023-01-12T03:59:04.796Z,7.30
2023-01-12T04:01:32.777Z,7.30
2023-01-12T04:03:59.746Z,7.20
2023-01-12T04:06:26.794Z,7.10
2023-01-12T04:08:53.681Z,7.10
2023-01-12T04:11:39.174Z,7.10
2023-01-12T04:14:06.072Z,7.00
2023-01-12T04:16:33.100Z,7.00
2023-01-12T04:19:00.105Z,7.00
2023-01-12T04:21:45.415Z,7.00
2023-01-12T04:24:12.323Z,7.00
2023-01-12T04:26:39.190Z,7.00
2023-01-12T04:29:06.205Z,7.00
2023-01-12T04:31:33.432Z,7.00
2023-01-12T04:34:00.673Z,7.10
2023-01-12T04:36:27.692Z,7.10
2023-01-12T04:38:54.750Z,7.10
2023-01-12T04:41:21.714Z,7.10
2023-01-12T04:43:48.643Z,7.10
2023-01-12T04:46:15.658Z,7.10
2023-01-12T04:48:44.061Z,7.10
2023-01-12T04:51:12.056Z,7.10
2023-01-12T04:53:38.947Z,7.10
2023-01-12T04:56:07.312Z,7.10
2023-01-12T04:58:35.230Z,7.10
2023-01-12T05:01:31.437Z,7.20
2023-01-12T05:04:02.307Z,7.10
2023-01-12T05:06:29.400Z,7.10
2023-01-12T05:09:19.922Z,7.10
2023-01-12T05:11:47.139Z,7.20
2023-01-12T05:14:14.027Z,7.10
2023-01-12T05:16:41.006Z,7.20
2023-01-12T05:19:09.405Z,7.10
2023-01-12T05:21:36.359Z,7.10
2023-01-12T05:24:03.411Z,7.20
2023-01-12T05:26:30.370Z,7.30
2023-01-12T05:28:57.256Z,7.50
2023-01-12T05:31:24.100Z,7.40
2023-01-12T05:33:51.097Z,7.40
2023-01-12T05:36:18.089Z,7.40
2023-01-12T05:38:45.087Z,7.50
2023-01-12T05:41:14.463Z,7.50
2023-01-12T05:43:50.995Z,7.60
2023-01-12T05:46:26.424Z,7.60
2023-01-12T05:48:54.905Z,7.60
2023-01-12T05:51:22.872Z,7.50
2023-01-12T05:53:49.935Z,7.60
2023-01-12T05:56:22.601Z,7.60
2023-01-12T05:58:55.230Z,7.60
2023-01-12T06:01:23.292Z,7.60
2023-01-12T06:03:52.609Z,7.80
2023-01-12T06:06:21.349Z,7.70
2023-01-12T06:08:50.711Z,7.70
2023-01-12T06:11:38.660Z,7.70
2023-01-12T06:14:06.390Z,7.70
2023-01-12T06:16:33.669Z,7.70
2023-01-12T06:19:01.564Z,7.80
2023-01-12T06:21:28.422Z,7.70
2023-01-12T06:23:55.356Z,7.90
2023-01-12T06:26:22.247Z,7.70
2023-01-12T06:28:49.239Z,7.80
2023-01-12T06:31:16.368Z,7.80
2023-01-12T06:33:43.671Z,7.80
2023-01-12T06:36:11.348Z,7.80
2023-01-12T06:38:38.441Z,7.80
2023-01-12T06:41:07.591Z,7.80
2023-01-12T06:43:34.648Z,7.80
2023-01-12T06:46:01.640Z,7.80
2023-01-12T06:48:38.793Z,7.80
2023-01-12T06:51:06.776Z,7.80
2023-01-12T06:53:33.708Z,7.80
2023-01-12T06:56:00.626Z,7.80
2023-01-12T06:58:27.544Z,7.80
2023-01-12T07:00:54.488Z,7.80
2023-01-12T07:03:21.541Z,7.80
2023-01-12T07:05:48.600Z,7.90
2023-01-12T07:08:19.168Z,7.90
2023-01-12T07:10:46.531Z,7.90
2023-01-12T07:13:13.710Z,7.90
2023-01-12T07:15:40.651Z,7.90
2023-01-12T07:18:07.812Z,7.90
2023-01-12T07:20:34.701Z,8.00
2023-01-12T07:23:01.963Z,7.90
2023-01-12T07:25:28.995Z,8.00
2023-01-12T07:27:57.791Z,8.00
2023-01-12T07:30:26.479Z,8.20
2023-01-12T07:32:54.130Z,8.00
2023-01-12T07:35:21.873Z,8.10
2023-01-12T07:37:56.105Z,8.10
2023-01-12T07:40:23.273Z,8.10
2023-01-12T07:43:01.601Z,8.10
2023-01-12T07:45:30.389Z,8.10
2023-01-12T07:47:58.676Z,8.10
2023-01-12T07:50:27.147Z,8.20
2023-01-12T07:52:54.645Z,8.20
2023-01-12T07:55:21.673Z,8.20
2023-01-12T07:58:05.348Z,8.20
2023-01-12T08:00:32.398Z,8.20
2023-01-12T08:03:08.865Z,8.20
2023-01-12T08:05:37.235Z,8.30
2023-01-12T08:08:05.158Z,8.30
2023-01-12T08:10:32.363Z,8.30
2023-01-12T08:12:59.240Z,8.40
2023-01-12T08:15:31.661Z,8.30
2023-01-12T08:18:16.314Z,8.30
2023-01-12T08:20:44.191Z,8.30
2023-01-12T08:23:25.480Z,8.30
2023-01-12T08:25:59.242Z,8.40
2023-01-12T08:28:43.684Z,8.30
2023-01-12T08:31:14.098Z,8.40
2023-01-12T08:33:42.288Z,8.40
2023-01-12T08:38:40.510Z,8.40
2023-01-12T08:41:25.945Z,8.40
2023-01-12T08:44:25.088Z,8.40
2023-01-12T08:46:53.206Z,8.50
2023-01-12T08:49:24.522Z,8.50
2023-01-12T08:51:52.199Z,8.50
2023-01-12T08:54:20.809Z,8.50
2023-01-12T08:56:49.317Z,8.60
2023-01-12T08:59:16.603Z,8.50
2023-01-12T09:01:43.723Z,8.50
2023-01-12T09:04:11.067Z,8.50
2023-01-12T09:06:48.414Z,8.50
2023-01-12T09:09:19.032Z,8.50
2023-01-12T09:11:47.420Z,8.50
2023-01-12T09:14:15.497Z,8.60
2023-01-12T09:16:42.950Z,8.60
2023-01-12T09:19:10.377Z,8.60
2023-01-12T09:21:40.184Z,8.60
2023-01-12T09:24:11.048Z,8.60
2023-01-12T09:26:40.935Z,8.60
2023-01-12T09:29:10.122Z,8.60
2023-01-12T09:31:39.370Z,8.60
2023-01-12T09:34:06.312Z,8.60
2023-01-12T09:36:35.680Z,8.60
2023-01-12T09:39:04.435Z,8.60
2023-01-12T09:42:06.471Z,8.60
2023-01-12T09:45:08.384Z,8.70
2023-01-12T09:48:01.242Z,8.70
2023-01-12T09:50:34.382Z,8.70
2023-01-12T09:53:17.993Z,8.70
2023-01-12T09:56:15.017Z,8.80
2023-01-12T09:59:07.736Z,8.70
2023-01-12T10:01:36.333Z,8.80
2023-01-12T10:04:05.165Z,8.80
2023-01-12T10:06:33.302Z,8.80
2023-01-12T10:09:06.845Z,8.90
2023-01-12T10:11:39.603Z,8.90
2023-01-12T10:14:33.355Z,9.00
2023-01-12T10:17:29.922Z,9.00
2023-01-12T10:20:17.490Z,9.00
2023-01-12T10:22:54.718Z,9.10
2023-01-12T10:25:37.330Z,9.20
2023-01-12T10:28:33.679Z,9.20
2023-01-12T10:31:01.016Z,9.20
2023-01-12T10:33:30.686Z,9.20
2023-01-12T10:36:19.431Z,9.30
2023-01-12T10:38:52.397Z,9.30
2023-01-12T10:41:26.291Z,9.40
2023-01-12T10:43:56.143Z,9.40
2023-01-12T10:46:27.031Z,9.40
2023-01-12T10:49:14.513Z,9.50
2023-01-12T10:51:59.507Z,9.60
2023-01-12T10:54:28.376Z,9.50
2023-01-12T10:57:05.694Z,9.60
2023-01-12T10:59:39.225Z,9.60
2023-01-12T11:02:09.166Z,9.70
2023-01-12T11:04:37.918Z,9.70
2023-01-12T11:07:19.596Z,9.70
2023-01-12T11:09:46.818Z,9.80
2023-01-12T11:12:23.715Z,9.80
2023-01-12T11:15:02.722Z,9.80
2023-01-12T11:17:49.543Z,9.90
2023-01-12T11:20:28.750Z,9.90
2023-01-12T11:22:59.331Z,9.90
2023-01-12T11:25:28.255Z,9.90
2023-01-12T11:28:04.183Z,10.00
2023-01-12T11:30:31.039Z,10.00
2023-01-12T11:33:20.467Z,10.10
2023-01-12T11:36:13.454Z,10.10
2023-01-12T11:38:49.374Z,10.10
2023-01-12T11:41:41.246Z,10.10
2023-01-12T11:44:30.717Z,10.20
2023-01-12T11:47:05.961Z,10.20
2023-01-12T11:49:43.294Z,10.20
2023-01-12T11:52:11.645Z,10.20
2023-01-12T11:54:39.589Z,10.20
2023-01-12T11:57:36.793Z,10.20
2023-01-12T12:00:22.279Z,10.30
2023-01-12T12:03:27.061Z,10.20
2023-01-12T12:06:37.337Z,10.30
2023-01-12T12:09:19.291Z,10.30
2023-01-12T12:11:56.472Z,10.40
2023-01-12T12:15:17.849Z,10.40
2023-01-12T12:18:05.899Z,10.40
2023-01-12T12:20:41.744Z,10.40
2023-01-12T12:23:25.927Z,10.40
2023-01-12T12:26:11.228Z,10.50
2023-01-12T12:28:58.279Z,10.40
2023-01-12T12:31:46.440Z,10.40
2023-01-12T12:34:43.282Z,10.40
2023-01-12T12:37:21.383Z,10.40
2023-01-12T12:39:52.997Z,10.40
2023-01-12T12:43:00.673Z,10.30
2023-01-12T12:45:52.573Z,10.30
2023-01-12T12:48:37.909Z,10.20
2023-01-12T12:51:07.699Z,10.20
2023-01-12T12:53:50.996Z,10.20
2023-01-12T12:56:25.207Z,10.10
2023-01-12T12:58:54.730Z,10.10
2023-01-12T13:01:24.835Z,10.00
2023-01-12T13:04:00.603Z,9.90
2023-01-12T13:06:27.496Z,9.90
2023-01-12T13:08:59.715Z,9.80
2023-01-12T13:11:55.597Z,9.70
2023-01-12T13:14:31.360Z,9.60
2023-01-12T13:17:20.247Z,9.60
2023-01-12T13:19:53.285Z,9.60
2023-01-12T13:22:48.683Z,9.60
2023-01-12T13:25:19.528Z,9.60
2023-01-12T13:27:46.571Z,9.60
2023-01-12T13:30:19.460Z,9.60
2023-01-12T13:33:15.405Z,9.50
2023-01-12T13:35:45.103Z,9.50
2023-01-12T13:38:34.132Z,9.50
2023-01-12T13:41:13.360Z,9.50
2023-01-12T13:43:57.838Z,9.50
2023-01-12T13:46:36.579Z,9.50
2023-01-12T13:49:19.400Z,9.40
2023-01-12T13:51:56.160Z,9.50
2023-01-12T13:54:23.088Z,9.40
2023-01-12T13:57:00.203Z,9.40
2023-01-12T13:59:30.004Z,9.40
2023-01-12T14:01:57.626Z,9.40
2023-01-12T14:04:55.013Z,9.40
2023-01-12T14:07:49.451Z,9.50
2023-01-12T14:10:35.912Z,9.40
2023-01-12T14:13:08.024Z,9.40
2023-01-12T14:15:56.432Z,9.40
2023-01-12T14:18:43.594Z,9.40
2023-01-12T14:21:24.032Z,9.40
2023-01-12T14:23:54.215Z,9.30
2023-01-12T14:26:24.127Z,9.30
2023-01-12T14:28:52.394Z,9.30
2023-01-12T14:31:39.550Z,9.40
2023-01-12T14:34:19.873Z,9.30
2023-01-12T14:36:47.044Z,9.30
2023-01-12T14:39:21.007Z,9.40
2023-01-12T14:42:08.225Z,9.30
2023-01-12T14:44:57.695Z,9.30
2023-01-12T14:47:36.522Z,9.30
2023-01-12T14:50:12.655Z,9.40
2023-01-12T14:52:42.027Z,9.40
2023-01-12T14:55:39.052Z,9.30
2023-01-12T14:58:06.768Z,9.20
2023-01-12T15:00:36.477Z,9.20
2023-01-12T15:03:16.379Z,9.20
2023-01-12T15:05:44.559Z,9.20
2023-01-12T15:08:11.530Z,9.20
2023-01-12T15:10:42.300Z,9.20
2023-01-12T15:13:18.297Z,9.10
2023-01-12T15:16:03.666Z,9.10
2023-01-12T15:18:49.054Z,9.10
2023-01-12T15:21:34.422Z,9.00
2023-01-12T15:24:20.285Z,9.10
2023-01-12T15:26:53.336Z,9.10
2023-01-12T15:29:29.164Z,9.00
2023-01-12T15:31:56.430Z,9.00
2023-01-12T15:34:23.734Z,9.00
2023-01-12T15:36:50.604Z,8.90
2023-01-12T15:39:17.541Z,8.90
2023-01-12T15:42:03.381Z,8.80
2023-01-12T15:44:30.255Z,8.90
2023-01-12T15:46:57.094Z,8.90
2023-01-12T15:49:24.034Z,9.00
2023-01-12T15:51:51.681Z,9.00
2023-01-12T15:54:20.523Z,9.10
2023-01-12T15:56:48.407Z,9.00
2023-01-12T15:59:15.347Z,9.10
2023-01-12T16:01:46.755Z,9.00
2023-01-12T16:04:41.620Z,8.90
2023-01-12T16:07:05.382Z,9.00
2023-01-12T16:09:32.281Z,8.90
2023-01-12T16:11:59.209Z,8.90
2023-01-12T16:14:26.178Z,8.90
2023-01-12T16:16:53.208Z,8.80
2023-01-12T16:19:24.485Z,8.80
2023-01-12T16:21:53.924Z,8.70
2023-01-12T16:24:21.033Z,8.70
2023-01-12T16:26:47.962Z,8.60
2023-01-12T16:29:14.833Z,8.50
2023-01-12T16:31:42.168Z,8.50
2023-01-12T16:34:09.517Z,8.50
2023-01-12T16:36:36.346Z,8.50
2023-01-12T16:39:03.453Z,8.50
2023-01-12T16:41:30.290Z,8.50
2023-01-12T16:43:59.106Z,8.60
2023-01-12T16:46:25.997Z,8.50
2023-01-12T16:48:55.321Z,8.50
2023-01-12T16:51:22.597Z,8.60
2023-01-12T16:53:51.543Z,8.60
2023-01-12T16:56:18.500Z,8.50
2023-01-12T16:58:48.757Z,8.60
2023-01-12T17:01:22.018Z,8.60
2023-01-12T17:03:52.056Z,8.60
2023-01-12T17:06:20.924Z,8.60
2023-01-12T17:08:48.721Z,8.60
2023-01-12T17:11:23.815Z,8.70
2023-01-12T17:13:53.264Z,8.70
2023-01-12T17:16:23.199Z,8.70
2023-01-12T17:18:51.055Z,8.50
2023-01-12T17:21:19.799Z,8.70
2023-01-12T17:23:47.121Z,8.70
2023-01-12T17:26:19.302Z,8.90
2023-01-12T17:28:47.484Z,8.70
2023-01-12T17:31:17.315Z,8.70
2023-01-12T17:33:44.852Z,8.80
2023-01-12T17:36:14.884Z,8.70
2023-01-12T17:38:47.720Z,8.80
2023-01-12T17:41:34.544Z,8.70
2023-01-12T17:44:03.737Z,8.70
2023-01-12T17:46:34.615Z,8.60
2023-01-12T17:49:03.521Z,8.70
2023-01-12T17:51:30.423Z,8.70
2023-01-12T17:53:58.705Z,8.70
2023-01-12T17:56:27.912Z,8.70
2023-01-12T17:58:55.308Z,8.80
2023-01-12T18:01:24.212Z,8.80
2023-01-12T18:03:51.897Z,9.00
2023-01-12T18:06:26.586Z,8.80
2023-01-12T18:08:56.412Z,8.90
2023-01-12T18:11:24.021Z,8.90
2023-01-12T18:13:51.012Z,8.90
2023-01-12T18:16:18.038Z,9.00
2023-01-12T18:18:47.724Z,9.00
2023-01-12T18:21:18.530Z,9.00
2023-01-12T18:23:45.613Z,8.90
2023-01-12T18:26:18.767Z,9.00
2023-01-12T18:28:46.116Z,9.00
2023-01-12T18:31:15.858Z,9.00
2023-01-12T18:33:43.371Z,9.10
2023-01-12T18:36:14.729Z,9.00
2023-01-12T18:38:41.886Z,8.90
2023-01-12T18:41:27.922Z,8.90
2023-01-12T18:43:55.278Z,9.00
2023-01-12T18:46:42.169Z,8.90
2023-01-12T18:49:09.126Z,9.00
2023-01-12T18:51:54.401Z,9.10
2023-01-12T18:54:21.251Z,9.10
2023-01-12T18:56:49.851Z,9.10
2023-01-12T18:59:16.879Z,9.20
2023-01-12T19:01:43.906Z,9.20
2023-01-12T19:04:15.063Z,9.30
2023-01-12T19:06:47.014Z,9.30
2023-01-12T19:09:32.408Z,9.30
2023-01-12T19:11:59.541Z,9.20
2023-01-12T19:14:45.706Z,9.30
2023-01-12T19:17:27.956Z,9.30
2023-01-12T19:20:02.444Z,9.50
2023-01-12T19:22:48.216Z,9.50
2023-01-12T19:25:39.936Z,9.60
2023-01-12T19:28:29.414Z,9.60
2023-01-12T19:31:00.997Z,9.70
2023-01-12T19:33:28.632Z,9.80
2023-01-12T19:35:55.692Z,9.80
2023-01-12T19:38:23.222Z,9.90
2023-01-12T19:41:06.625Z,9.90
2023-01-12T19:43:34.920Z,9.90
2023-01-12T19:46:02.738Z,9.90
2023-01-12T19:48:32.557Z,10.00
2023-01-12T19:51:08.996Z,10.10
2023-01-12T19:53:40.203Z,10.20
2023-01-12T19:56:11.801Z,10.20
2023-01-12T19:58:39.268Z,10.20
2023-01-12T20:01:07.007Z,10.20
2023-01-12T20:03:34.892Z,10.20
2023-01-12T20:06:08.506Z,10.30
2023-01-12T20:08:35.327Z,10.20
2023-01-12T20:11:05.094Z,10.30
2023-01-12T20:13:38.545Z,10.30
2023-01-12T20:16:07.700Z,10.30
2023-01-12T20:18:34.609Z,10.40
2023-01-12T20:21:03.479Z,10.40
2023-01-12T20:23:30.376Z,10.30
2023-01-12T20:25:57.726Z,10.30
2023-01-12T20:28:24.893Z,10.40
2023-01-12T20:30:51.730Z,10.50
2023-01-12T20:33:18.958Z,10.40
2023-01-12T20:35:48.871Z,10.50
2023-01-12T20:38:16.918Z,10.50
2023-01-12T20:40:45.395Z,10.50
2023-01-12T20:43:12.618Z,10.50
2023-01-12T20:45:41.940Z,10.50
2023-01-12T20:48:11.836Z,10.50
2023-01-12T20:50:44.962Z,10.50
2023-01-12T20:53:13.191Z,10.50
2023-01-12T20:55:49.463Z,10.40
2023-01-12T20:58:16.715Z,10.50
2023-01-12T21:00:44.421Z,10.50
2023-01-12T21:03:11.423Z,10.50
2023-01-12T21:05:45.946Z,10.60
2023-01-12T21:08:14.240Z,10.60
2023-01-12T21:10:48.521Z,10.60
2023-01-12T21:13:15.533Z,10.70
2023-01-12T21:15:42.447Z,10.60
2023-01-12T21:18:09.369Z,10.60
2023-01-12T21:20:36.296Z,10.60
2023-01-12T21:23:03.226Z,10.60
2023-01-12T21:25:30.165Z,10.60
2023-01-12T21:27:57.343Z,10.70
2023-01-12T21:30:24.418Z,10.70
2023-01-12T21:32:52.854Z,10.60
2023-01-12T21:35:19.715Z,10.60
2023-01-12T21:37:46.688Z,10.70
2023-01-12T21:40:14.491Z,10.70
2023-01-12T21:42:59.742Z,10.70
2023-01-12T21:45:26.662Z,10.70
2023-01-12T21:47:55.431Z,10.80
2023-01-12T21:50:23.105Z,10.80
2023-01-12T21:52:49.998Z,10.80
2023-01-12T21:55:19.443Z,10.70
2023-01-12T21:57:47.708Z,10.80
2023-01-12T22:00:20.349Z,10.80
2023-01-12T22:02:47.566Z,10.80
2023-01-12T22:05:14.444Z,10.90
2023-01-12T22:07:41.403Z,10.90
2023-01-12T22:10:23.449Z,10.80
2023-01-12T22:12:54.107Z,10.80
2023-01-12T22:15:21.986Z,10.80
2023-01-12T22:17:51.331Z,10.80
2023-01-12T22:20:18.538Z,10.80
2023-01-12T22:22:45.531Z,10.80
2023-01-12T22:25:15.222Z,10.80
2023-01-12T22:27:42.443Z,10.80
2023-01-12T22:30:16.806Z,10.90
2023-01-12T22:32:44.277Z,10.90
2023-01-12T22:35:12.619Z,10.90
2023-01-12T22:37:40.473Z,10.90
2023-01-12T22:40:10.341Z,10.90
2023-01-12T22:42:55.912Z,10.90
2023-01-12T22:45:23.119Z,10.90
2023-01-12T22:47:54.731Z,10.90
2023-01-12T22:50:22.608Z,10.90
2023-01-12T22:52:52.342Z,10.90
2023-01-12T22:55:20.739Z,10.90
2023-01-12T22:57:50.517Z,10.90
2023-01-12T23:00:21.956Z,10.90
2023-01-12T23:03:01.400Z,10.90
2023-01-12T23:05:33.566Z,10.90
2023-01-12T23:08:01.043Z,10.80
2023-01-12T23:10:28.752Z,10.80
2023-01-12T23:13:14.144Z,10.80
2023-01-12T23:15:43.175Z,10.80
2023-01-12T23:18:10.820Z,10.80
2023-01-12T23:20:38.226Z,10.90
2023-01-12T23:23:07.591Z,10.80
2023-01-12T23:25:35.621Z,10.80
2023-01-12T23:28:03.287Z,10.80
2023-01-12T23:30:30.809Z,10.90
2023-01-12T23:33:03.981Z,10.90
2023-01-12T23:35:36.862Z,10.80
2023-01-12T23:38:04.195Z,10.80
2023-01-12T23:40:31.105Z,10.80
2023-01-12T23:42:58.069Z,10.90
2023-01-12T23:45:25.067Z,10.90
2023-01-12T23:47:51.975Z,10.90
2023-01-12T23:50:19.095Z,10.80
2023-01-12T23:52:48.871Z,10.80
2023-01-12T23:55:16.311Z,10.80
2023-01-12T23:57:45.367Z,10.70
